sensor_id;sensor_type;location;lat;lon;timestamp;temperature;humidity
612;DHT22;293;53.888;11.464;2023-07-29T00:00:43;18.10;99.90
612;DHT22;293;53.888;11.464;2023-07-29T00:03:10;18.20;99.90
612;DHT22;293;53.888;11.464;2023-07-29T00:05:37;18.20;99.90
612;DHT22;293;53.888;11.464;2023-07-29T00:08:05;18.20;99.90
612;DHT22;293;53.888;11.464;2023-07-29T00:10:32;18.20;99.90
612;DHT22;293;53.888;11.464;2023-07-29T00:13:00;18.20;99.90
612;DHT22;293;53.888;11.464;2023-07-29T00:15:27;18.30;99.90
612;DHT22;293;53.888;11.464;2023-07-29T00:17:54;18.30;99.90
612;DHT22;293;53.888;11.464;2023-07-29T00:20:21;18.30;99.90
612;DHT22;293;53.888;11.464;2023-07-29T00:22:48;18.40;99.90
612;DHT22;293;53.888;11.464;2023-07-29T00:25:18;18.40;99.90
612;DHT22;293;53.888;11.464;2023-07-29T00:27:45;18.40;99.90
612;DHT22;293;53.888;11.464;2023-07-29T00:30:13;18.40;99.90
612;DHT22;293;53.888;11.464;2023-07-29T00:32:40;18.40;99.90
612;DHT22;293;53.888;11.464;2023-07-29T00:35:08;18.40;99.90
612;DHT22;293;53.888;11.464;2023-07-29T00:37:35;18.40;99.90
612;DHT22;293;53.888;11.464;2023-07-29T00:40:03;18.50;99.90
612;DHT22;293;53.888;11.464;2023-07-29T00:42:30;18.40;99.90
612;DHT22;293;53.888;11.464;2023-07-29T00:44:57;18.50;99.90
612;DHT22;293;53.888;11.464;2023-07-29T00:47:25;18.50;99.90
612;DHT22;293;53.888;11.464;2023-07-29T00:49:53;18.50;99.90
612;DHT22;293;53.888;11.464;2023-07-29T00:52:20;18.60;99.90
612;DHT22;293;53.888;11.464;2023-07-29T00:54:47;18.60;99.90
612;DHT22;293;53.888;11.464;2023-07-29T00:57:15;18.60;99.90
612;DHT22;293;53.888;11.464;2023-07-29T00:59:43;18.50;99.90
612;DHT22;293;53.888;11.464;2023-07-29T01:02:10;18.60;99.90
612;DHT22;293;53.888;11.464;2023-07-29T01:04:38;18.60;99.90
612;DHT22;293;53.888;11.464;2023-07-29T01:07:11;18.60;99.90
612;DHT22;293;53.888;11.464;2023-07-29T01:09:47;18.60;99.90
612;DHT22;293;53.888;11.464;2023-07-29T01:12:20;18.60;99.90
612;DHT22;293;53.888;11.464;2023-07-29T01:14:55;18.60;99.90
612;DHT22;293;53.888;11.464;2023-07-29T01:17:27;18.60;99.90
612;DHT22;293;53.888;11.464;2023-07-29T01:20:00;18.70;99.90
612;DHT22;293;53.888;11.464;2023-07-29T01:22:32;18.70;99.90
612;DHT22;293;53.888;11.464;2023-07-29T01:25:01;18.70;99.90
612;DHT22;293;53.888;11.464;2023-07-29T01:27:28;18.70;99.90
612;DHT22;293;53.888;11.464;2023-07-29T01:29:56;18.80;99.90
612;DHT22;293;53.888;11.464;2023-07-29T01:32:29;18.80;99.90
612;DHT22;293;53.888;11.464;2023-07-29T01:35:03;18.80;99.90
612;DHT22;293;53.888;11.464;2023-07-29T01:37:32;18.80;99.90
612;DHT22;293;53.888;11.464;2023-07-29T01:40:01;18.80;99.90
612;DHT22;293;53.888;11.464;2023-07-29T01:42:29;18.80;99.90
612;DHT22;293;53.888;11.464;2023-07-29T01:44:57;18.80;99.90
612;DHT22;293;53.888;11.464;2023-07-29T01:47:24;18.80;99.90
612;DHT22;293;53.888;11.464;2023-07-29T01:49:51;18.80;99.90
612;DHT22;293;53.888;11.464;2023-07-29T01:52:18;18.80;99.90
612;DHT22;293;53.888;11.464;2023-07-29T01:54:45;18.80;99.90
612;DHT22;293;53.888;11.464;2023-07-29T01:57:13;18.80;99.90
612;DHT22;293;53.888;11.464;2023-07-29T01:59:40;18.80;99.90
612;DHT22;293;53.888;11.464;2023-07-29T02:02:07;18.80;99.90
612;DHT22;293;53.888;11.464;2023-07-29T02:04:34;18.80;99.90
612;DHT22;293;53.888;11.464;2023-07-29T02:07:00;18.80;99.90
612;DHT22;293;53.888;11.464;2023-07-29T02:09:27;18.80;99.90
612;DHT22;293;53.888;11.464;2023-07-29T02:11:54;18.80;99.90
612;DHT22;293;53.888;11.464;2023-07-29T02:14:23;18.80;99.90
612;DHT22;293;53.888;11.464;2023-07-29T02:16:49;18.70;99.90
612;DHT22;293;53.888;11.464;2023-07-29T02:19:16;18.70;99.90
612;DHT22;293;53.888;11.464;2023-07-29T02:21:43;18.70;99.90
612;DHT22;293;53.888;11.464;2023-07-29T02:24:10;18.70;99.90
612;DHT22;293;53.888;11.464;2023-07-29T02:26:37;18.70;99.90
612;DHT22;293;53.888;11.464;2023-07-29T02:29:04;18.70;99.90
612;DHT22;293;53.888;11.464;2023-07-29T02:31:32;18.60;99.90
612;DHT22;293;53.888;11.464;2023-07-29T02:34:00;18.70;99.90
612;DHT22;293;53.888;11.464;2023-07-29T02:36:27;18.70;99.90
612;DHT22;293;53.888;11.464;2023-07-29T02:38:53;18.70;99.90
612;DHT22;293;53.888;11.464;2023-07-29T02:41:20;18.70;99.90
612;DHT22;293;53.888;11.464;2023-07-29T02:43:49;18.70;99.90
612;DHT22;293;53.888;11.464;2023-07-29T02:46:16;18.70;99.90
612;DHT22;293;53.888;11.464;2023-07-29T02:48:45;18.70;99.90
612;DHT22;293;53.888;11.464;2023-07-29T02:51:11;18.60;99.90
612;DHT22;293;53.888;11.464;2023-07-29T02:53:38;18.70;99.90
612;DHT22;293;53.888;11.464;2023-07-29T02:56:05;18.60;99.90
612;DHT22;293;53.888;11.464;2023-07-29T02:58:35;18.60;99.90
612;DHT22;293;53.888;11.464;2023-07-29T03:01:03;18.60;99.90
612;DHT22;293;53.888;11.464;2023-07-29T03:03:30;18.60;99.90
612;DHT22;293;53.888;11.464;2023-07-29T03:06:00;18.60;99.90
612;DHT22;293;53.888;11.464;2023-07-29T03:08:27;18.60;99.90
612;DHT22;293;53.888;11.464;2023-07-29T03:10:55;18.60;99.90
612;DHT22;293;53.888;11.464;2023-07-29T03:13:22;18.60;99.90
612;DHT22;293;53.888;11.464;2023-07-29T03:15:49;18.60;99.90
612;DHT22;293;53.888;11.464;2023-07-29T03:18:15;18.60;99.90
612;DHT22;293;53.888;11.464;2023-07-29T03:20:42;18.60;99.90
612;DHT22;293;53.888;11.464;2023-07-29T03:23:10;18.60;99.90
612;DHT22;293;53.888;11.464;2023-07-29T03:25:37;18.60;99.90
612;DHT22;293;53.888;11.464;2023-07-29T03:28:04;18.60;99.90
612;DHT22;293;53.888;11.464;2023-07-29T03:30:31;18.60;99.90
612;DHT22;293;53.888;11.464;2023-07-29T03:32:58;18.60;99.90
612;DHT22;293;53.888;11.464;2023-07-29T03:35:25;18.60;99.90
612;DHT22;293;53.888;11.464;2023-07-29T03:37:52;18.60;99.90
612;DHT22;293;53.888;11.464;2023-07-29T03:40:20;18.70;99.90
612;DHT22;293;53.888;11.464;2023-07-29T03:42:47;18.70;99.90
612;DHT22;293;53.888;11.464;2023-07-29T03:45:14;18.70;99.90
612;DHT22;293;53.888;11.464;2023-07-29T03:47:41;18.80;99.90
612;DHT22;293;53.888;11.464;2023-07-29T03:50:08;18.80;99.90
612;DHT22;293;53.888;11.464;2023-07-29T03:52:35;18.80;99.90
612;DHT22;293;53.888;11.464;2023-07-29T03:55:02;18.80;99.90
612;DHT22;293;53.888;11.464;2023-07-29T03:57:30;18.90;99.90
612;DHT22;293;53.888;11.464;2023-07-29T03:59:57;18.90;99.90
612;DHT22;293;53.888;11.464;2023-07-29T04:02:24;18.90;99.90
612;DHT22;293;53.888;11.464;2023-07-29T04:04:51;19.00;99.90
612;DHT22;293;53.888;11.464;2023-07-29T04:07:18;19.00;99.90
612;DHT22;293;53.888;11.464;2023-07-29T04:09:46;19.00;99.90
612;DHT22;293;53.888;11.464;2023-07-29T04:12:13;19.00;99.90
612;DHT22;293;53.888;11.464;2023-07-29T04:14:41;19.00;99.90
612;DHT22;293;53.888;11.464;2023-07-29T04:19:35;19.00;99.90
612;DHT22;293;53.888;11.464;2023-07-29T04:22:02;19.00;99.90
612;DHT22;293;53.888;11.464;2023-07-29T04:24:29;19.00;99.90
612;DHT22;293;53.888;11.464;2023-07-29T04:26:56;19.00;99.90
612;DHT22;293;53.888;11.464;2023-07-29T04:29:22;19.00;99.90
612;DHT22;293;53.888;11.464;2023-07-29T04:31:51;19.10;99.90
612;DHT22;293;53.888;11.464;2023-07-29T04:34:18;19.10;99.90
612;DHT22;293;53.888;11.464;2023-07-29T04:36:45;19.10;99.90
612;DHT22;293;53.888;11.464;2023-07-29T04:39:13;19.10;99.90
612;DHT22;293;53.888;11.464;2023-07-29T04:41:40;19.20;99.90
612;DHT22;293;53.888;11.464;2023-07-29T04:44:07;19.20;99.90
612;DHT22;293;53.888;11.464;2023-07-29T04:46:36;19.20;99.90
612;DHT22;293;53.888;11.464;2023-07-29T04:49:05;19.20;99.90
612;DHT22;293;53.888;11.464;2023-07-29T04:51:32;19.30;99.90
612;DHT22;293;53.888;11.464;2023-07-29T04:53:59;19.30;99.90
612;DHT22;293;53.888;11.464;2023-07-29T04:56:26;19.40;99.90
612;DHT22;293;53.888;11.464;2023-07-29T04:58:53;19.40;99.90
612;DHT22;293;53.888;11.464;2023-07-29T05:01:19;19.30;99.90
612;DHT22;293;53.888;11.464;2023-07-29T05:03:46;19.30;99.90
612;DHT22;293;53.888;11.464;2023-07-29T05:06:14;19.30;99.90
612;DHT22;293;53.888;11.464;2023-07-29T05:08:41;19.40;99.90
612;DHT22;293;53.888;11.464;2023-07-29T05:11:08;19.40;99.90
612;DHT22;293;53.888;11.464;2023-07-29T05:13:35;19.40;99.90
612;DHT22;293;53.888;11.464;2023-07-29T05:16:03;19.50;99.90
612;DHT22;293;53.888;11.464;2023-07-29T05:18:30;19.50;99.90
612;DHT22;293;53.888;11.464;2023-07-29T05:20:57;19.50;99.90
612;DHT22;293;53.888;11.464;2023-07-29T05:23:25;19.60;99.90
612;DHT22;293;53.888;11.464;2023-07-29T05:25:52;19.70;99.90
612;DHT22;293;53.888;11.464;2023-07-29T05:28:19;19.70;99.90
612;DHT22;293;53.888;11.464;2023-07-29T05:30:46;19.80;99.90
612;DHT22;293;53.888;11.464;2023-07-29T05:33:12;19.90;99.90
612;DHT22;293;53.888;11.464;2023-07-29T05:35:39;19.90;99.90
612;DHT22;293;53.888;11.464;2023-07-29T05:38:06;20.00;99.90
612;DHT22;293;53.888;11.464;2023-07-29T05:40:35;20.10;99.90
612;DHT22;293;53.888;11.464;2023-07-29T05:43:02;20.10;99.90
612;DHT22;293;53.888;11.464;2023-07-29T05:45:29;20.10;99.90
612;DHT22;293;53.888;11.464;2023-07-29T05:47:57;20.20;99.90
612;DHT22;293;53.888;11.464;2023-07-29T05:50:24;20.20;99.90
612;DHT22;293;53.888;11.464;2023-07-29T05:52:50;20.30;99.90
612;DHT22;293;53.888;11.464;2023-07-29T05:55:17;20.40;99.90
612;DHT22;293;53.888;11.464;2023-07-29T05:57:45;20.40;99.90
612;DHT22;293;53.888;11.464;2023-07-29T06:00:12;20.50;99.90
612;DHT22;293;53.888;11.464;2023-07-29T06:02:39;20.60;99.90
612;DHT22;293;53.888;11.464;2023-07-29T06:05:07;20.60;99.90
612;DHT22;293;53.888;11.464;2023-07-29T06:07:34;20.70;99.90
612;DHT22;293;53.888;11.464;2023-07-29T06:10:01;20.80;99.90
612;DHT22;293;53.888;11.464;2023-07-29T06:12:28;20.90;99.90
612;DHT22;293;53.888;11.464;2023-07-29T06:14:56;20.90;99.90
612;DHT22;293;53.888;11.464;2023-07-29T06:17:23;21.10;99.90
612;DHT22;293;53.888;11.464;2023-07-29T06:19:50;21.30;99.90
612;DHT22;293;53.888;11.464;2023-07-29T06:22:16;21.40;99.90
612;DHT22;293;53.888;11.464;2023-07-29T06:24:43;21.50;99.90
612;DHT22;293;53.888;11.464;2023-07-29T06:27:10;21.50;99.90
612;DHT22;293;53.888;11.464;2023-07-29T06:29:37;21.60;99.90
612;DHT22;293;53.888;11.464;2023-07-29T06:32:06;21.80;99.90
612;DHT22;293;53.888;11.464;2023-07-29T06:34:33;22.40;99.90
612;DHT22;293;53.888;11.464;2023-07-29T06:37:00;22.70;99.90
612;DHT22;293;53.888;11.464;2023-07-29T06:39:26;22.80;99.90
612;DHT22;293;53.888;11.464;2023-07-29T06:41:53;22.90;99.90
612;DHT22;293;53.888;11.464;2023-07-29T06:44:20;22.90;99.90
612;DHT22;293;53.888;11.464;2023-07-29T06:46:47;23.10;99.90
612;DHT22;293;53.888;11.464;2023-07-29T06:49:15;23.10;99.90
612;DHT22;293;53.888;11.464;2023-07-29T06:51:42;23.10;99.90
612;DHT22;293;53.888;11.464;2023-07-29T06:54:09;23.00;99.90
612;DHT22;293;53.888;11.464;2023-07-29T06:56:36;22.90;99.90
612;DHT22;293;53.888;11.464;2023-07-29T06:59:03;22.80;99.90
612;DHT22;293;53.888;11.464;2023-07-29T07:01:30;22.70;99.90
612;DHT22;293;53.888;11.464;2023-07-29T07:03:57;22.60;99.90
612;DHT22;293;53.888;11.464;2023-07-29T07:06:25;22.50;99.90
612;DHT22;293;53.888;11.464;2023-07-29T07:08:52;22.50;99.90
612;DHT22;293;53.888;11.464;2023-07-29T07:11:19;22.50;99.90
612;DHT22;293;53.888;11.464;2023-07-29T07:13:46;22.50;99.90
612;DHT22;293;53.888;11.464;2023-07-29T07:16:13;22.50;99.90
612;DHT22;293;53.888;11.464;2023-07-29T07:18:40;22.60;99.90
612;DHT22;293;53.888;11.464;2023-07-29T07:21:06;22.60;99.90
612;DHT22;293;53.888;11.464;2023-07-29T07:23:35;22.70;99.90
612;DHT22;293;53.888;11.464;2023-07-29T07:26:02;22.70;99.90
612;DHT22;293;53.888;11.464;2023-07-29T07:28:29;22.70;99.90
612;DHT22;293;53.888;11.464;2023-07-29T07:30:56;22.70;99.90
612;DHT22;293;53.888;11.464;2023-07-29T07:33:23;22.70;99.90
612;DHT22;293;53.888;11.464;2023-07-29T07:35:50;22.70;99.90
612;DHT22;293;53.888;11.464;2023-07-29T07:38:17;22.70;99.90
612;DHT22;293;53.888;11.464;2023-07-29T07:40:53;22.70;99.90
612;DHT22;293;53.888;11.464;2023-07-29T07:43:21;22.70;99.90
612;DHT22;293;53.888;11.464;2023-07-29T07:45:49;22.60;99.90
612;DHT22;293;53.888;11.464;2023-07-29T07:48:16;22.60;99.90
612;DHT22;293;53.888;11.464;2023-07-29T07:50:45;22.70;99.90
612;DHT22;293;53.888;11.464;2023-07-29T07:53:12;22.80;99.90
612;DHT22;293;53.888;11.464;2023-07-29T07:55:39;23.00;99.90
612;DHT22;293;53.888;11.464;2023-07-29T07:58:07;23.40;99.90
612;DHT22;293;53.888;11.464;2023-07-29T08:00:34;23.90;99.90
612;DHT22;293;53.888;11.464;2023-07-29T08:03:01;24.50;99.90
612;DHT22;293;53.888;11.464;2023-07-29T08:05:28;24.90;99.90
612;DHT22;293;53.888;11.464;2023-07-29T08:07:55;25.20;99.90
612;DHT22;293;53.888;11.464;2023-07-29T08:10:21;25.50;99.90
612;DHT22;293;53.888;11.464;2023-07-29T08:12:48;25.80;99.90
612;DHT22;293;53.888;11.464;2023-07-29T08:15:16;25.90;99.90
612;DHT22;293;53.888;11.464;2023-07-29T08:17:45;25.90;99.90
612;DHT22;293;53.888;11.464;2023-07-29T08:20:13;25.80;99.90
612;DHT22;293;53.888;11.464;2023-07-29T08:22:39;25.90;99.90
612;DHT22;293;53.888;11.464;2023-07-29T08:25:07;26.10;99.90
612;DHT22;293;53.888;11.464;2023-07-29T08:27:34;26.20;99.90
612;DHT22;293;53.888;11.464;2023-07-29T08:30:01;26.40;99.90
612;DHT22;293;53.888;11.464;2023-07-29T08:32:29;26.60;99.90
612;DHT22;293;53.888;11.464;2023-07-29T08:34:56;26.50;99.90
612;DHT22;293;53.888;11.464;2023-07-29T08:37:23;26.50;99.90
612;DHT22;293;53.888;11.464;2023-07-29T08:39:50;26.70;99.90
612;DHT22;293;53.888;11.464;2023-07-29T08:42:19;26.80;99.90
612;DHT22;293;53.888;11.464;2023-07-29T08:44:49;27.00;99.90
612;DHT22;293;53.888;11.464;2023-07-29T08:47:16;27.10;99.70
612;DHT22;293;53.888;11.464;2023-07-29T08:49:45;27.20;99.40
612;DHT22;293;53.888;11.464;2023-07-29T08:52:12;27.10;98.40
612;DHT22;293;53.888;11.464;2023-07-29T08:54:40;27.00;98.60
612;DHT22;293;53.888;11.464;2023-07-29T08:57:07;27.00;98.40
612;DHT22;293;53.888;11.464;2023-07-29T08:59:35;27.10;98.60
612;DHT22;293;53.888;11.464;2023-07-29T09:02:02;27.20;98.40
612;DHT22;293;53.888;11.464;2023-07-29T09:04:29;27.30;97.80
612;DHT22;293;53.888;11.464;2023-07-29T09:06:58;27.50;97.90
612;DHT22;293;53.888;11.464;2023-07-29T09:09:25;27.60;97.80
612;DHT22;293;53.888;11.464;2023-07-29T09:11:53;27.70;97.40
612;DHT22;293;53.888;11.464;2023-07-29T09:14:20;27.70;96.60
612;DHT22;293;53.888;11.464;2023-07-29T09:16:46;27.60;96.70
612;DHT22;293;53.888;11.464;2023-07-29T09:19:14;27.50;96.50
612;DHT22;293;53.888;11.464;2023-07-29T09:21:42;27.50;96.70
612;DHT22;293;53.888;11.464;2023-07-29T09:24:12;27.50;96.90
612;DHT22;293;53.888;11.464;2023-07-29T09:26:48;27.50;97.10
612;DHT22;293;53.888;11.464;2023-07-29T09:29:15;27.40;96.50
612;DHT22;293;53.888;11.464;2023-07-29T09:31:42;27.50;96.70
612;DHT22;293;53.888;11.464;2023-07-29T09:34:09;27.60;96.90
612;DHT22;293;53.888;11.464;2023-07-29T09:36:36;27.70;96.90
612;DHT22;293;53.888;11.464;2023-07-29T09:39:03;27.80;96.50
612;DHT22;293;53.888;11.464;2023-07-29T09:41:31;27.80;96.10
612;DHT22;293;53.888;11.464;2023-07-29T09:43:59;27.90;96.00
612;DHT22;293;53.888;11.464;2023-07-29T09:46:32;27.90;95.80
612;DHT22;293;53.888;11.464;2023-07-29T09:49:00;28.00;96.00
612;DHT22;293;53.888;11.464;2023-07-29T09:51:28;28.20;95.90
612;DHT22;293;53.888;11.464;2023-07-29T09:53:55;28.30;95.00
612;DHT22;293;53.888;11.464;2023-07-29T09:56:25;28.20;94.30
612;DHT22;293;53.888;11.464;2023-07-29T09:58:55;28.20;94.60
612;DHT22;293;53.888;11.464;2023-07-29T10:01:23;28.20;94.40
612;DHT22;293;53.888;11.464;2023-07-29T10:03:50;28.20;94.30
612;DHT22;293;53.888;11.464;2023-07-29T10:06:17;28.00;94.50
612;DHT22;293;53.888;11.464;2023-07-29T10:08:45;28.00;95.10
612;DHT22;293;53.888;11.464;2023-07-29T10:11:12;27.70;95.50
612;DHT22;293;53.888;11.464;2023-07-29T10:13:39;27.70;95.80
612;DHT22;293;53.888;11.464;2023-07-29T10:16:08;27.50;96.40
612;DHT22;293;53.888;11.464;2023-07-29T10:18:35;27.30;97.10
612;DHT22;293;53.888;11.464;2023-07-29T10:21:03;27.20;96.90
612;DHT22;293;53.888;11.464;2023-07-29T10:23:37;27.20;97.10
612;DHT22;293;53.888;11.464;2023-07-29T10:26:05;27.10;97.40
612;DHT22;293;53.888;11.464;2023-07-29T10:28:32;27.00;97.80
612;DHT22;293;53.888;11.464;2023-07-29T10:31:00;26.90;97.70
612;DHT22;293;53.888;11.464;2023-07-29T10:33:31;26.70;98.00
612;DHT22;293;53.888;11.464;2023-07-29T10:35:59;26.50;98.40
612;DHT22;293;53.888;11.464;2023-07-29T10:38:27;26.20;98.80
612;DHT22;293;53.888;11.464;2023-07-29T10:40:55;25.90;99.20
612;DHT22;293;53.888;11.464;2023-07-29T10:43:25;25.70;99.70
612;DHT22;293;53.888;11.464;2023-07-29T10:45:53;25.50;99.90
612;DHT22;293;53.888;11.464;2023-07-29T10:48:40;25.30;99.90
612;DHT22;293;53.888;11.464;2023-07-29T10:51:24;24.50;99.90
612;DHT22;293;53.888;11.464;2023-07-29T10:53:56;24.40;99.90
612;DHT22;293;53.888;11.464;2023-07-29T10:56:30;23.50;99.90
612;DHT22;293;53.888;11.464;2023-07-29T10:58:59;22.50;99.90
612;DHT22;293;53.888;11.464;2023-07-29T11:01:30;21.60;99.90
612;DHT22;293;53.888;11.464;2023-07-29T11:04:27;20.90;99.90
612;DHT22;293;53.888;11.464;2023-07-29T11:07:26;20.60;99.90
612;DHT22;293;53.888;11.464;2023-07-29T11:10:01;20.20;99.90
612;DHT22;293;53.888;11.464;2023-07-29T11:12:39;20.00;99.90
612;DHT22;293;53.888;11.464;2023-07-29T11:15:20;19.90;99.90
612;DHT22;293;53.888;11.464;2023-07-29T11:17:49;19.90;99.90
612;DHT22;293;53.888;11.464;2023-07-29T11:20:19;20.00;99.90
612;DHT22;293;53.888;11.464;2023-07-29T11:22:47;20.10;99.90
612;DHT22;293;53.888;11.464;2023-07-29T11:25:15;20.30;99.90
612;DHT22;293;53.888;11.464;2023-07-29T11:27:41;20.50;99.90
612;DHT22;293;53.888;11.464;2023-07-29T11:30:10;20.80;99.90
612;DHT22;293;53.888;11.464;2023-07-29T11:32:38;21.10;99.90
612;DHT22;293;53.888;11.464;2023-07-29T11:35:07;21.30;99.90
612;DHT22;293;53.888;11.464;2023-07-29T11:37:37;21.50;99.90
612;DHT22;293;53.888;11.464;2023-07-29T11:40:06;21.60;99.90
612;DHT22;293;53.888;11.464;2023-07-29T11:42:34;21.70;99.90
612;DHT22;293;53.888;11.464;2023-07-29T11:45:01;21.90;99.90
612;DHT22;293;53.888;11.464;2023-07-29T11:47:29;21.90;99.90
612;DHT22;293;53.888;11.464;2023-07-29T11:49:58;21.90;99.90
612;DHT22;293;53.888;11.464;2023-07-29T11:52:26;22.00;99.90
612;DHT22;293;53.888;11.464;2023-07-29T11:54:55;22.20;99.90
612;DHT22;293;53.888;11.464;2023-07-29T11:57:23;22.30;99.90
612;DHT22;293;53.888;11.464;2023-07-29T11:59:50;22.50;99.90
612;DHT22;293;53.888;11.464;2023-07-29T12:02:19;22.60;99.90
612;DHT22;293;53.888;11.464;2023-07-29T12:04:47;22.50;99.90
612;DHT22;293;53.888;11.464;2023-07-29T12:07:16;22.60;99.90
612;DHT22;293;53.888;11.464;2023-07-29T12:09:43;22.70;99.90
612;DHT22;293;53.888;11.464;2023-07-29T12:12:12;22.80;99.90
612;DHT22;293;53.888;11.464;2023-07-29T12:14:39;22.90;99.90
612;DHT22;293;53.888;11.464;2023-07-29T12:17:09;22.90;99.90
612;DHT22;293;53.888;11.464;2023-07-29T12:19:38;22.90;99.90
612;DHT22;293;53.888;11.464;2023-07-29T12:22:07;22.90;99.90
612;DHT22;293;53.888;11.464;2023-07-29T12:24:36;22.90;99.90
612;DHT22;293;53.888;11.464;2023-07-29T12:27:03;22.90;99.90
612;DHT22;293;53.888;11.464;2023-07-29T12:29:32;22.90;99.90
612;DHT22;293;53.888;11.464;2023-07-29T12:32:00;22.80;99.90
612;DHT22;293;53.888;11.464;2023-07-29T12:34:28;22.80;99.90
612;DHT22;293;53.888;11.464;2023-07-29T12:36:56;22.90;99.90
612;DHT22;293;53.888;11.464;2023-07-29T12:39:24;22.90;99.90
612;DHT22;293;53.888;11.464;2023-07-29T12:41:54;23.00;99.90
612;DHT22;293;53.888;11.464;2023-07-29T12:44:24;23.10;99.90
612;DHT22;293;53.888;11.464;2023-07-29T12:46:55;23.30;99.90
612;DHT22;293;53.888;11.464;2023-07-29T12:49:25;23.50;99.90
612;DHT22;293;53.888;11.464;2023-07-29T12:51:51;23.50;99.90
612;DHT22;293;53.888;11.464;2023-07-29T12:54:18;23.60;99.90
612;DHT22;293;53.888;11.464;2023-07-29T12:56:45;23.70;99.90
612;DHT22;293;53.888;11.464;2023-07-29T12:59:12;23.70;99.90
612;DHT22;293;53.888;11.464;2023-07-29T13:01:39;23.70;99.90
612;DHT22;293;53.888;11.464;2023-07-29T13:04:08;23.80;99.90
612;DHT22;293;53.888;11.464;2023-07-29T13:06:35;23.90;99.90
612;DHT22;293;53.888;11.464;2023-07-29T13:09:02;23.80;99.90
612;DHT22;293;53.888;11.464;2023-07-29T13:11:30;23.80;99.90
612;DHT22;293;53.888;11.464;2023-07-29T13:13:58;23.80;99.90
612;DHT22;293;53.888;11.464;2023-07-29T13:16:26;23.80;99.90
612;DHT22;293;53.888;11.464;2023-07-29T13:18:53;23.80;99.90
612;DHT22;293;53.888;11.464;2023-07-29T13:21:21;23.80;99.90
612;DHT22;293;53.888;11.464;2023-07-29T13:23:48;23.80;99.90
612;DHT22;293;53.888;11.464;2023-07-29T13:26:15;23.80;99.90
612;DHT22;293;53.888;11.464;2023-07-29T13:28:42;23.80;99.90
612;DHT22;293;53.888;11.464;2023-07-29T13:31:09;23.90;99.90
612;DHT22;293;53.888;11.464;2023-07-29T13:33:36;23.80;99.90
612;DHT22;293;53.888;11.464;2023-07-29T13:36:04;23.90;99.90
612;DHT22;293;53.888;11.464;2023-07-29T13:38:32;24.00;99.90
612;DHT22;293;53.888;11.464;2023-07-29T13:40:59;24.00;99.90
612;DHT22;293;53.888;11.464;2023-07-29T13:43:26;24.20;99.90
612;DHT22;293;53.888;11.464;2023-07-29T13:45:53;24.30;99.90
612;DHT22;293;53.888;11.464;2023-07-29T13:48:19;24.50;99.90
612;DHT22;293;53.888;11.464;2023-07-29T13:50:46;24.60;99.90
612;DHT22;293;53.888;11.464;2023-07-29T13:53:13;24.70;99.90
612;DHT22;293;53.888;11.464;2023-07-29T13:55:41;24.80;99.90
612;DHT22;293;53.888;11.464;2023-07-29T13:58:08;24.90;99.90
612;DHT22;293;53.888;11.464;2023-07-29T14:00:35;25.00;99.90
612;DHT22;293;53.888;11.464;2023-07-29T14:03:03;25.10;99.90
612;DHT22;293;53.888;11.464;2023-07-29T14:05:29;25.20;99.90
612;DHT22;293;53.888;11.464;2023-07-29T14:07:56;25.20;99.90
612;DHT22;293;53.888;11.464;2023-07-29T14:10:24;25.10;99.90
612;DHT22;293;53.888;11.464;2023-07-29T14:12:52;25.10;99.90
612;DHT22;293;53.888;11.464;2023-07-29T14:15:20;24.90;99.90
612;DHT22;293;53.888;11.464;2023-07-29T14:17:47;24.80;99.90
612;DHT22;293;53.888;11.464;2023-07-29T14:20:14;24.70;99.90
612;DHT22;293;53.888;11.464;2023-07-29T14:22:41;24.70;99.90
612;DHT22;293;53.888;11.464;2023-07-29T14:25:08;24.60;99.90
612;DHT22;293;53.888;11.464;2023-07-29T14:27:35;24.50;99.90
612;DHT22;293;53.888;11.464;2023-07-29T14:30:04;24.50;99.90
612;DHT22;293;53.888;11.464;2023-07-29T14:32:31;24.50;99.90
612;DHT22;293;53.888;11.464;2023-07-29T14:34:58;24.50;99.90
612;DHT22;293;53.888;11.464;2023-07-29T14:37:29;24.60;99.90
612;DHT22;293;53.888;11.464;2023-07-29T14:39:57;24.60;99.90
612;DHT22;293;53.888;11.464;2023-07-29T14:42:24;24.50;99.90
612;DHT22;293;53.888;11.464;2023-07-29T14:44:51;24.40;99.90
612;DHT22;293;53.888;11.464;2023-07-29T14:47:19;24.40;99.90
612;DHT22;293;53.888;11.464;2023-07-29T14:49:46;24.50;99.90
612;DHT22;293;53.888;11.464;2023-07-29T14:52:13;24.50;99.90
612;DHT22;293;53.888;11.464;2023-07-29T14:54:40;24.70;99.90
612;DHT22;293;53.888;11.464;2023-07-29T14:57:07;24.70;99.90
612;DHT22;293;53.888;11.464;2023-07-29T14:59:34;24.70;99.90
612;DHT22;293;53.888;11.464;2023-07-29T15:02:01;24.80;99.90
612;DHT22;293;53.888;11.464;2023-07-29T15:04:29;24.80;99.90
612;DHT22;293;53.888;11.464;2023-07-29T15:06:56;24.80;99.90
612;DHT22;293;53.888;11.464;2023-07-29T15:09:23;24.80;99.90
612;DHT22;293;53.888;11.464;2023-07-29T15:11:50;24.70;99.90
612;DHT22;293;53.888;11.464;2023-07-29T15:14:17;24.70;99.90
612;DHT22;293;53.888;11.464;2023-07-29T15:16:44;24.60;99.90
612;DHT22;293;53.888;11.464;2023-07-29T15:19:11;24.60;99.90
612;DHT22;293;53.888;11.464;2023-07-29T15:21:40;24.50;99.80
612;DHT22;293;53.888;11.464;2023-07-29T15:24:07;24.40;99.50
612;DHT22;293;53.888;11.464;2023-07-29T15:26:34;24.40;99.90
612;DHT22;293;53.888;11.464;2023-07-29T15:29:01;24.50;99.90
612;DHT22;293;53.888;11.464;2023-07-29T15:31:28;24.50;99.90
612;DHT22;293;53.888;11.464;2023-07-29T15:33:55;24.60;99.90
612;DHT22;293;53.888;11.464;2023-07-29T15:36:22;24.60;99.50
612;DHT22;293;53.888;11.464;2023-07-29T15:38:51;24.70;99.90
612;DHT22;293;53.888;11.464;2023-07-29T15:41:18;24.80;99.60
612;DHT22;293;53.888;11.464;2023-07-29T15:43:45;24.90;99.00
612;DHT22;293;53.888;11.464;2023-07-29T15:46:12;24.90;98.70
612;DHT22;293;53.888;11.464;2023-07-29T15:48:39;25.00;98.20
612;DHT22;293;53.888;11.464;2023-07-29T15:51:05;25.10;98.40
612;DHT22;293;53.888;11.464;2023-07-29T15:53:33;25.20;97.00
612;DHT22;293;53.888;11.464;2023-07-29T15:56:02;25.30;95.70
612;DHT22;293;53.888;11.464;2023-07-29T15:58:28;25.30;94.30
612;DHT22;293;53.888;11.464;2023-07-29T16:00:55;25.10;94.40
612;DHT22;293;53.888;11.464;2023-07-29T16:03:22;25.10;95.10
612;DHT22;293;53.888;11.464;2023-07-29T16:05:49;25.00;96.60
612;DHT22;293;53.888;11.464;2023-07-29T16:08:16;24.90;96.40
612;DHT22;293;53.888;11.464;2023-07-29T16:10:43;24.80;96.50
612;DHT22;293;53.888;11.464;2023-07-29T16:13:11;24.70;96.00
612;DHT22;293;53.888;11.464;2023-07-29T16:15:43;24.70;95.50
612;DHT22;293;53.888;11.464;2023-07-29T16:18:10;24.60;96.40
612;DHT22;293;53.888;11.464;2023-07-29T16:20:36;24.50;97.10
612;DHT22;293;53.888;11.464;2023-07-29T16:23:03;24.40;96.20